Time;durP1;ratioP1;P1;durP2;ratioP2;P2;SDS_P1;SDS_P2;PMS_P1;PMS_P2;Temp;Humidity;BMP_temperature;BMP_pressure;BME280_temperature;BME280_humidity;BME280_pressure;Samples;Min_cycle;Max_cycle;Signal;HPM_P1;HPM_P2
2023/11/03 00:01:25;;;;;;;3.70;2.67;;;;;;;9.28;94.45;97713.31;5064850;28;20029;-71
2023/11/03 00:03:51;;;;;;;4.57;3.58;;;;;;;9.42;93.28;97708.28;5064619;28;20495;-71
2023/11/03 00:06:16;;;;;;;6.05;3.83;;;;;;;9.29;94.45;97707.19;5064576;28;20028;-70
2023/11/03 00:08:42;;;;;;;4.07;2.53;;;;;;;9.62;92.35;97706.50;5064751;28;20017;-72
2023/11/03 00:11:07;;;;;;;4.60;2.20;;;;;;;9.78;91.36;97704.00;5064572;28;20021;-72
2023/11/03 00:13:36;;;;;;;8.20;2.88;;;;;;;9.60;92.10;97682.41;5064645;28;20047;-73
2023/11/03 00:16:02;;;;;;;5.18;3.45;;;;;;;9.49;92.83;97700.25;5064481;28;20035;-71
2023/11/03 00:18:28;;;;;;;4.22;3.90;;;;;;;9.46;93.97;97682.25;5064336;28;20032;-70
2023/11/03 00:20:53;;;;;;;4.90;3.35;;;;;;;9.53;93.48;97675.88;5064580;28;20021;-71
2023/11/03 00:23:18;;;;;;;3.42;2.45;;;;;;;9.50;94.21;97653.56;5064702;28;20082;-70
2023/11/03 00:25:47;;;;;;;5.03;4.18;;;;;;;9.39;94.28;97667.00;5046360;28;20025;-71
2023/11/03 00:28:12;;;;;;;5.28;4.43;;;;;;;9.38;94.12;97675.69;5064800;28;20013;-72
2023/11/03 00:30:39;;;;;;;6.43;4.10;;;;;;;9.53;93.37;97648.22;5064005;28;20025;-71
2023/11/03 00:33:05;;;;;;;7.90;4.57;;;;;;;9.54;93.45;97667.19;5046485;28;20025;-70
2023/11/03 00:35:31;;;;;;;3.67;2.53;;;;;;;9.62;92.77;97641.75;5046481;28;20102;-69
2023/11/03 00:37:57;;;;;;;5.20;3.08;;;;;;;9.52;93.25;97637.94;5046420;28;20021;-70
2023/11/03 00:40:22;;;;;;;6.85;3.78;;;;;;;9.39;93.96;97640.28;5046497;28;20047;-69
2023/11/03 00:42:47;;;;;;;2.72;2.40;;;;;;;9.42;94.36;97629.78;5064339;28;20017;-70
2023/11/03 00:45:14;;;;;;;2.70;2.38;;;;;;;9.40;94.13;97626.41;5064313;28;20107;-69
2023/11/03 00:47:39;;;;;;;2.63;2.40;;;;;;;9.32;94.79;97624.22;5064169;28;20048;-70
2023/11/03 00:50:06;;;;;;;3.20;2.92;;;;;;;9.29;95.19;97616.59;5064196;28;20379;-69
2023/11/03 00:52:31;;;;;;;3.97;2.97;;;;;;;9.38;94.46;97612.69;5046171;28;20032;-70
2023/11/03 00:54:56;;;;;;;3.40;2.88;;;;;;;9.35;94.82;97613.69;5064315;28;20025;-70
2023/11/03 00:57:23;;;;;;;11.48;4.18;;;;;;;9.36;94.85;97630.09;5064001;28;20543;-71
2023/11/03 00:59:49;;;;;;;4.25;3.17;;;;;;;9.48;94.40;97608.75;5063911;28;20075;-69
2023/11/03 01:02:14;;;;;;;2.15;2.05;;;;;;;9.62;93.55;97599.47;5047726;28;20040;-71
2023/11/03 01:04:40;;;;;;;3.75;2.47;;;;;;;9.66;92.86;97606.19;5067750;28;20028;-71
2023/11/03 01:07:06;;;;;;;5.13;4.30;;;;;;;9.49;94.08;97599.25;5067332;28;20525;-72
2023/11/03 01:09:31;;;;;;;5.82;3.92;;;;;;;9.62;93.31;97615.84;5067579;28;20031;-71
2023/11/03 01:11:57;;;;;;;3.55;3.25;;;;;;;9.52;93.91;97599.09;5049516;28;20350;-72
2023/11/03 01:14:23;;;;;;;7.53;4.60;;;;;;;9.74;91.84;97582.47;5067502;28;20025;-70
2023/11/03 01:16:49;;;;;;;4.28;3.88;;;;;;;9.60;93.07;97581.41;5067381;28;20025;-72
2023/11/03 01:19:18;;;;;;;2.78;2.47;;;;;;;9.59;93.13;97590.09;5067476;28;20021;-72
2023/11/03 01:21:45;;;;;;;3.63;2.17;;;;;;;9.57;93.54;97581.56;5067353;28;20033;-71
2023/11/03 01:24:11;;;;;;;8.30;5.15;;;;;;;9.58;93.06;97588.44;5049416;28;20043;-72
2023/11/03 01:26:38;;;;;;;6.07;5.13;;;;;;;9.63;92.79;97586.44;5067304;28;20041;-72
2023/11/03 01:29:04;;;;;;;2.03;1.90;;;;;;;9.58;93.70;97577.22;5049270;28;20049;-72
2023/11/03 01:31:30;;;;;;;5.75;4.72;;;;;;;9.54;93.97;97574.78;5049367;28;20024;-71
2023/11/03 01:33:55;;;;;;;9.27;4.88;;;;;;;9.54;93.88;97579.13;5067075;28;20467;-72
2023/11/03 01:36:21;;;;;;;7.90;3.28;;;;;;;9.62;93.23;97586.50;5049027;28;20025;-72
2023/11/03 01:38:48;;;;;;;6.00;4.18;;;;;;;9.61;93.33;97566.72;5067077;28;20025;-72
2023/11/03 01:41:15;;;;;;;7.78;2.97;;;;;;;9.65;92.78;97555.25;5066934;28;20024;-71
2023/11/03 01:44:01;;;;;;;1.73;1.63;;;;;;;9.73;92.86;97566.09;5067058;28;20025;-72
2023/11/03 01:46:26;;;;;;;4.88;4.20;;;;;;;9.62;92.73;97561.44;5066930;28;20085;-72
2023/11/03 01:48:52;;;;;;;9.95;4.00;;;;;;;9.63;92.76;97570.88;5066569;28;20083;-71
2023/11/03 01:51:18;;;;;;;5.25;4.57;;;;;;;9.56;92.70;97574.72;5066696;28;20025;-70
2023/11/03 01:53:43;;;;;;;15.35;5.20;;;;;;;9.52;93.11;97570.63;5066433;28;20021;-71
2023/11/03 01:56:10;;;;;;;6.25;4.63;;;;;;;9.47;93.56;97578.63;5066830;28;20058;-71
2023/11/03 01:58:35;;;;;;;8.60;5.13;;;;;;;9.42;93.60;97581.41;5066828;28;20049;-71
2023/11/03 02:01:02;;;;;;;7.38;5.00;;;;;;;9.44;93.28;97588.28;5066599;28;20017;-71
2023/11/03 02:03:27;;;;;;;7.05;3.83;;;;;;;9.32;94.00;97579.34;5048513;28;20029;-70
2023/11/03 02:05:53;;;;;;;4.07;3.72;;;;;;;9.26;94.14;97570.97;5066453;28;20087;-69
2023/11/03 02:08:18;;;;;;;6.25;4.90;;;;;;;9.20;94.55;97562.69;5066486;28;20537;-69
2023/11/03 02:10:43;;;;;;;1.98;1.65;;;;;;;9.32;93.95;97562.06;5048378;28;20025;-68
2023/11/03 02:13:13;;;;;;;3.25;3.03;;;;;;;9.22;94.52;97563.44;5066034;28;20025;-69
2023/11/03 02:15:39;;;;;;;4.10;3.05;;;;;;;9.28;93.55;97542.44;5048758;28;20017;-70
2023/11/03 02:18:08;;;;;;;5.15;4.75;;;;;;;9.21;94.35;97543.63;5066241;28;20024;-70
2023/11/03 02:20:33;;;;;;;5.20;3.85;;;;;;;9.21;94.16;97530.69;5048784;28;20017;-69
2023/11/03 02:22:59;;;;;;;3.13;2.83;;;;;;;9.14;94.91;97525.81;5066494;28;20044;-70
2023/11/03 02:25:24;;;;;;;2.20;1.95;;;;;;;9.25;94.42;97537.41;5066253;28;20120;-69
2023/11/03 02:27:50;;;;;;;7.55;5.72;;;;;;;9.14;94.85;97524.97;5066103;28;20553;-69
2023/11/03 02:30:15;;;;;;;2.97;2.60;;;;;;;9.17;94.50;97530.84;5066167;28;20028;-69
2023/11/03 02:32:41;;;;;;;6.45;4.53;;;;;;;9.04;95.18;97519.44;5066162;28;20112;-70
2023/11/03 02:35:06;;;;;;;5.68;4.97;;;;;;;9.23;94.59;97532.31;5066180;28;20191;-69
2023/11/03 02:37:32;;;;;;;6.47;5.20;;;;;;;9.15;94.82;97524.88;5065948;28;20552;-69
2023/11/03 02:39:57;;;;;;;6.03;4.70;;;;;;;9.22;94.56;97509.91;5066177;28;20037;-70
2023/11/03 02:42:22;;;;;;;9.82;5.63;;;;;;;9.15;95.04;97517.13;5065764;28;20032;-71
2023/11/03 02:44:48;;;;;;;5.80;4.45;;;;;;;9.14;95.45;97515.47;5065966;28;20036;-70
2023/11/03 02:47:14;;;;;;;9.80;4.00;;;;;;;9.12;95.50;97519.88;5048035;28;20024;-70
2023/11/03 02:49:39;;;;;;;2.13;1.92;;;;;;;9.23;94.76;97514.19;5066151;28;20029;-69
2023/11/03 02:52:05;;;;;;;7.65;6.00;;;;;;;9.21;94.75;97522.94;5066041;28;20085;-71
2023/11/03 02:54:31;;;;;;;4.75;3.47;;;;;;;9.25;94.85;97530.47;5047786;28;20060;-70
2023/11/03 02:56:56;;;;;;;7.28;4.65;;;;;;;9.23;94.98;97529.72;5065489;28;20028;-69
2023/11/03 02:59:22;;;;;;;9.80;2.20;;;;;;;9.27;94.64;97532.97;5065610;28;20377;-69
2023/11/03 03:01:48;;;;;;;4.53;3.78;;;;;;;9.31;94.85;97521.56;5065586;28;20020;-71
2023/11/03 03:04:13;;;;;;;4.18;3.83;;;;;;;9.22;95.42;97520.25;5047521;28;20016;-70
2023/11/03 03:06:42;;;;;;;3.80;3.42;;;;;;;9.24;95.38;97527.94;5065217;28;20064;-70
2023/11/03 03:09:07;;;;;;;0.68;0.60;;;;;;;9.40;94.06;97528.88;5047462;28;20084;-70
2023/11/03 03:11:33;;;;;;;14.43;6.65;;;;;;;9.22;95.48;97522.84;5065380;28;20059;-70
2023/11/03 03:13:59;;;;;;;5.40;4.47;;;;;;;9.28;94.72;97507.00;5065306;28;20104;-70
2023/11/03 03:16:25;;;;;;;2.22;2.05;;;;;;;9.38;94.16;97499.63;5065294;28;20132;-71
2023/11/03 03:18:51;;;;;;;5.88;4.25;;;;;;;9.25;94.89;97503.75;5065228;28;20025;-69
2023/11/03 03:21:17;;;;;;;3.83;3.53;;;;;;;9.30;94.83;97519.88;5047342;28;20401;-69
2023/11/03 03:23:43;;;;;;;6.13;4.45;;;;;;;9.21;95.03;97528.09;5065185;28;20106;-70
2023/11/03 03:26:08;;;;;;;6.15;4.22;;;;;;;9.16;95.59;97543.84;5064337;28;20017;-69
2023/11/03 03:28:33;;;;;;;3.58;2.83;;;;;;;9.13;95.88;97539.69;5064874;28;20397;-69
2023/11/03 03:30:59;;;;;;;5.55;4.43;;;;;;;9.05;96.36;97528.84;5064917;28;20025;-69
2023/11/03 03:33:25;;;;;;;2.05;1.63;;;;;;;9.08;96.76;97541.66;5065086;28;20057;-69
2023/11/03 03:35:50;;;;;;;9.75;5.38;;;;;;;9.04;96.55;97542.72;5065079;28;20032;-69
2023/11/03 03:38:16;;;;;;;3.17;2.78;;;;;;;9.30;96.38;97538.00;5064957;28;20036;-69
2023/11/03 03:40:41;;;;;;;3.60;3.08;;;;;;;9.09;96.02;97535.53;5064842;28;20021;-68
2023/11/03 03:43:06;;;;;;;8.50;5.72;;;;;;;9.01;96.61;97542.88;5064948;28;20085;-70
2023/11/03 03:45:31;;;;;;;9.00;4.15;;;;;;;8.85;97.49;97530.66;5064889;28;20028;-69
2023/11/03 03:47:57;;;;;;;4.90;2.65;;;;;;;9.02;96.97;97539.34;5064898;28;20017;-70
2023/11/03 03:50:22;;;;;;;2.47;2.38;;;;;;;9.04;97.21;97548.72;5064817;28;20086;-70
2023/11/03 03:52:47;;;;;;;0.30;0.30;;;;;;;8.99;97.08;97529.16;5064764;28;20085;-70
2023/11/03 03:55:13;;;;;;;0.50;0.50;;;;;;;8.93;98.29;97514.75;5064850;28;20029;-71
2023/11/03 03:57:38;;;;;;;0.77;0.77;;;;;;;8.89;98.68;97544.28;5064660;28;20029;-71
2023/11/03 04:00:05;;;;;;;0.38;0.38;;;;;;;8.84;99.48;97523.81;5064808;28;20047;-71
2023/11/03 04:02:30;;;;;;;0.70;0.70;;;;;;;8.95;99.10;97512.09;5047049;28;20116;-70
2023/11/03 04:04:55;;;;;;;0.60;0.60;;;;;;;8.79;99.69;97505.06;5064715;28;20025;-71
2023/11/03 04:07:21;;;;;;;2.55;1.67;;;;;;;8.83;99.78;97504.03;5064426;28;20049;-70
2023/11/03 04:09:46;;;;;;;0.30;0.30;;;;;;;8.91;99.77;97514.81;5064761;28;20025;-69
2023/11/03 04:12:11;;;;;;;0.30;0.30;;;;;;;8.91;99.57;97481.19;5064451;28;20036;-70
2023/11/03 04:14:37;;;;;;;0.82;0.82;;;;;;;8.80;100.00;97486.06;5064583;28;20044;-69
2023/11/03 04:17:03;;;;;;;2.30;2.20;;;;;;;8.82;100.00;97476.47;5046709;28;20028;-68
2023/11/03 04:19:28;;;;;;;0.40;0.40;;;;;;;8.81;100.00;97479.97;5064604;28;20052;-69
2023/11/03 04:21:54;;;;;;;0.40;0.40;;;;;;;8.84;100.00;97489.31;5064678;28;20029;-70
2023/11/03 04:24:19;;;;;;;0.40;0.40;;;;;;;8.94;100.00;97467.28;5046774;28;20031;-69
2023/11/03 04:26:44;;;;;;;0.40;0.40;;;;;;;8.89;100.00;97431.28;5064402;28;20020;-69
2023/11/03 04:29:10;;;;;;;0.40;0.40;;;;;;;9.08;100.00;97451.06;5064425;28;20026;-70
2023/11/03 04:31:35;;;;;;;0.40;0.40;;;;;;;8.85;100.00;97445.28;5064506;28;20031;-70
2023/11/03 04:34:01;;;;;;;0.40;0.40;;;;;;;8.73;100.00;97444.13;5046531;28;20469;-68
2023/11/03 04:36:26;;;;;;;1.95;1.85;;;;;;;8.88;100.00;97442.53;5064677;28;20029;-69
2023/11/03 04:38:52;;;;;;;0.30;0.30;;;;;;;8.89;100.00;97444.22;5050228;28;20029;-69
2023/11/03 04:41:18;;;;;;;0.30;0.30;;;;;;;8.97;100.00;97443.84;5068015;28;20032;-70
2023/11/03 04:43:43;;;;;;;0.73;0.73;;;;;;;8.70;100.00;97451.19;5068451;28;20044;-70
2023/11/03 04:46:09;;;;;;;0.50;0.50;;;;;;;8.63;100.00;97448.91;5068145;28;20080;-70
2023/11/03 04:48:35;;;;;;;0.30;0.30;;;;;;;8.75;100.00;97455.25;5068225;28;20477;-70
2023/11/03 04:51:01;;;;;;;2.55;2.45;;;;;;;8.82;100.00;97448.00;5050151;28;20025;-69
2023/11/03 04:53:27;;;;;;;0.30;0.30;;;;;;;8.68;100.00;97464.22;5068243;28;20032;-70
2023/11/03 04:55:52;;;;;;;0.40;0.40;;;;;;;8.65;100.00;97448.84;5050226;28;20441;-69
2023/11/03 04:58:27;;;;;;;0.40;0.40;;;;;;;8.64;100.00;97442.81;5050112;28;20059;-71
2023/11/03 05:00:53;;;;;;;0.40;0.40;;;;;;;8.63;100.00;97446.31;5066574;28;20477;-69
2023/11/03 05:03:19;;;;;;;0.30;0.30;;;;;;;8.64;100.00;97442.00;5067780;28;20036;-69
2023/11/03 05:05:45;;;;;;;0.30;0.30;;;;;;;8.65;100.00;97446.25;5067821;28;20016;-69
2023/11/03 05:08:10;;;;;;;0.40;0.40;;;;;;;8.66;100.00;97445.34;5067488;28;20052;-70
2023/11/03 05:10:37;;;;;;;0.40;0.40;;;;;;;8.66;100.00;97440.16;5049717;28;20024;-68
2023/11/03 05:13:03;;;;;;;0.40;0.40;;;;;;;8.70;100.00;97446.03;5067561;28;20079;-69
2023/11/03 05:15:28;;;;;;;0.30;0.30;;;;;;;8.68;100.00;97436.59;5049738;28;20032;-69
2023/11/03 05:17:53;;;;;;;0.57;0.57;;;;;;;8.68;100.00;97422.81;5067310;28;20080;-69
2023/11/03 05:20:19;;;;;;;0.30;0.30;;;;;;;8.67;100.00;97411.63;5067553;28;20485;-68
2023/11/03 05:22:45;;;;;;;0.30;0.30;;;;;;;8.65;100.00;97418.66;5067610;28;20039;-70
2023/11/03 05:25:10;;;;;;;0.30;0.30;;;;;;;8.65;100.00;97403.13;5049302;28;20092;-69
2023/11/03 05:27:36;;;;;;;0.40;0.40;;;;;;;8.65;100.00;97410.91;5067331;28;20065;-70
2023/11/03 05:30:01;;;;;;;3.33;3.05;;;;;;;8.65;100.00;97395.38;5067342;28;20035;-69
2023/11/03 05:32:27;;;;;;;0.40;0.40;;;;;;;8.66;100.00;97394.44;5067440;28;20127;-70
2023/11/03 05:34:52;;;;;;;0.30;0.30;;;;;;;8.65;100.00;97397.97;5049428;28;20124;-69
2023/11/03 05:37:17;;;;;;;0.38;0.38;;;;;;;8.65;100.00;97408.31;5066983;28;20039;-69
2023/11/03 05:39:43;;;;;;;0.50;0.50;;;;;;;8.66;100.00;97384.09;5067211;28;20028;-70
2023/11/03 05:42:08;;;;;;;0.30;0.30;;;;;;;8.64;100.00;97370.41;5067072;28;20464;-70
2023/11/03 05:44:34;;;;;;;0.40;0.40;;;;;;;8.68;100.00;97373.69;5049178;28;20020;-68
2023/11/03 05:47:00;;;;;;;0.38;0.38;;;;;;;8.70;100.00;97365.84;5067242;28;20028;-69
2023/11/03 05:49:26;;;;;;;0.40;0.40;;;;;;;8.71;100.00;97359.75;5065890;28;20027;-70
2023/11/03 05:51:52;;;;;;;0.32;0.32;;;;;;;8.72;100.00;97371.78;5048978;28;20040;-69
2023/11/03 05:54:17;;;;;;;0.40;0.40;;;;;;;8.71;100.00;97377.84;5048798;28;20025;-69
2023/11/03 05:56:43;;;;;;;0.40;0.40;;;;;;;8.72;100.00;97369.22;5066673;28;20040;-69
2023/11/03 05:59:08;;;;;;;0.40;0.40;;;;;;;8.71;100.00;97375.28;5066825;28;20104;-70
2023/11/03 06:01:35;;;;;;;0.40;0.40;;;;;;;8.74;100.00;97370.78;5067111;28;20025;-69
2023/11/03 06:04:00;;;;;;;0.30;0.30;;;;;;;8.75;100.00;97377.66;5066885;28;20024;-70
2023/11/03 06:06:26;;;;;;;1.50;1.40;;;;;;;8.88;100.00;97377.84;5048375;28;20088;-70
2023/11/03 06:08:52;;;;;;;0.30;0.30;;;;;;;9.00;100.00;97391.94;5066694;28;20020;-70
2023/11/03 06:11:18;;;;;;;0.40;0.40;;;;;;;8.88;100.00;97384.81;5066578;28;20032;-68
2023/11/03 06:13:43;;;;;;;0.47;0.47;;;;;;;8.93;100.00;97395.72;5066758;28;20029;-68
2023/11/03 06:16:08;;;;;;;1.38;1.27;;;;;;;9.08;100.00;97409.66;5066539;28;20059;-68
2023/11/03 06:18:34;;;;;;;0.40;0.40;;;;;;;9.15;100.00;97410.19;5066338;28;20475;-69
2023/11/03 06:20:59;;;;;;;0.70;0.70;;;;;;;9.16;100.00;97396.31;5066271;28;20103;-69
2023/11/03 06:23:25;;;;;;;1.48;1.38;;;;;;;8.99;100.00;97402.38;5066580;28;20044;-69
2023/11/03 06:25:51;;;;;;;0.32;0.32;;;;;;;9.10;100.00;97407.00;5066261;28;20017;-70
2023/11/03 06:28:16;;;;;;;0.40;0.40;;;;;;;8.97;100.00;97404.19;5066155;28;20021;-68
2023/11/03 06:30:43;;;;;;;1.08;1.02;;;;;;;9.03;100.00;97403.88;5066110;28;20075;-67
2023/11/03 06:33:08;;;;;;;0.30;0.30;;;;;;;9.22;100.00;97406.38;5048299;28;20021;-70
2023/11/03 06:35:34;;;;;;;0.63;0.63;;;;;;;9.19;100.00;97411.69;5066276;28;20028;-69
2023/11/03 06:37:59;;;;;;;0.52;0.52;;;;;;;9.18;100.00;97403.09;5066115;28;20028;-69
2023/11/03 06:40:25;;;;;;;0.40;0.40;;;;;;;8.97;100.00;97399.00;5048035;28;20025;-69
2023/11/03 06:42:51;;;;;;;0.57;0.57;;;;;;;9.04;100.00;97397.81;5047444;28;20016;-70
2023/11/03 06:45:17;;;;;;;0.40;0.40;;;;;;;8.98;100.00;97401.53;5066186;28;20040;-69
2023/11/03 06:47:43;;;;;;;0.30;0.30;;;;;;;8.97;100.00;97404.19;5065874;28;20043;-69
2023/11/03 06:50:09;;;;;;;0.30;0.30;;;;;;;9.00;100.00;97394.53;5066140;28;20073;-69
2023/11/03 06:52:35;;;;;;;0.30;0.30;;;;;;;9.01;100.00;97377.25;5066015;28;20025;-70
2023/11/03 06:55:00;;;;;;;0.40;0.40;;;;;;;8.94;100.00;97366.38;5066173;28;20024;-70
2023/11/03 06:57:25;;;;;;;0.60;0.60;;;;;;;9.00;100.00;97365.22;5065542;28;20059;-68
2023/11/03 06:59:51;;;;;;;0.50;0.50;;;;;;;8.89;100.00;97379.53;5065437;28;20028;-71
2023/11/03 07:02:16;;;;;;;0.40;0.40;;;;;;;8.90;100.00;97364.84;5065773;28;20511;-68
2023/11/03 07:04:43;;;;;;;0.60;0.60;;;;;;;8.87;100.00;97376.19;5065570;28;20021;-67
2023/11/03 07:07:09;;;;;;;0.40;0.40;;;;;;;8.90;100.00;97381.22;5064574;28;20108;-68
2023/11/03 07:09:34;;;;;;;0.30;0.30;;;;;;;8.92;100.00;97376.81;5065020;28;20029;-69
2023/11/03 07:12:00;;;;;;;0.40;0.40;;;;;;;8.87;100.00;97385.69;5065209;28;20041;-68
2023/11/03 07:14:25;;;;;;;0.88;0.88;;;;;;;8.95;100.00;97385.31;5065406;28;20029;-68
2023/11/03 07:16:52;;;;;;;0.40;0.40;;;;;;;8.95;100.00;97377.53;5047295;28;20017;-68
2023/11/03 07:19:18;;;;;;;0.40;0.40;;;;;;;8.86;100.00;97377.13;5065152;28;20021;-69
2023/11/03 07:21:51;;;;;;;0.40;0.40;;;;;;;8.85;100.00;97387.53;5065332;28;20056;-68
2023/11/03 07:24:17;;;;;;;0.30;0.30;;;;;;;8.93;100.00;97400.91;5065605;28;20025;-67
2023/11/03 07:26:43;;;;;;;0.40;0.40;;;;;;;9.09;100.00;97400.97;5065160;28;20028;-69
2023/11/03 07:29:09;;;;;;;0.40;0.40;;;;;;;8.92;100.00;97404.41;5065387;28;20017;-70
2023/11/03 07:31:35;;;;;;;0.40;0.40;;;;;;;8.94;100.00;97405.19;5065361;28;20028;-68
2023/11/03 07:34:01;;;;;;;0.40;0.40;;;;;;;8.99;100.00;97404.94;5047323;28;20358;-68
2023/11/03 07:36:26;;;;;;;0.40;0.40;;;;;;;9.00;100.00;97398.84;5065142;28;20547;-69
2023/11/03 07:38:51;;;;;;;0.70;0.70;;;;;;;8.98;100.00;97408.47;5065090;28;20027;-69
2023/11/03 07:41:17;;;;;;;0.40;0.40;;;;;;;8.96;100.00;97397.34;5064813;28;20020;-68
2023/11/03 07:43:42;;;;;;;2.53;1.60;;;;;;;8.92;100.00;97397.50;5047356;28;20017;-70
2023/11/03 07:46:09;;;;;;;0.65;0.65;;;;;;;8.96;100.00;97399.94;5065060;28;20024;-68
2023/11/03 07:48:35;;;;;;;0.35;0.35;;;;;;;9.06;100.00;97414.06;5065025;28;20383;-68
2023/11/03 07:51:01;;;;;;;0.30;0.30;;;;;;;9.11;100.00;97408.66;5064948;28;20044;-70
2023/11/03 07:53:27;;;;;;;0.40;0.40;;;;;;;9.09;100.00;97410.50;5065054;28;20051;-68
2023/11/03 07:55:52;;;;;;;0.60;0.60;;;;;;;9.05;100.00;97405.50;5064968;28;20016;-68
2023/11/03 07:58:18;;;;;;;0.50;0.50;;;;;;;9.08;100.00;97411.41;5064815;28;20028;-69
2023/11/03 08:00:44;;;;;;;0.40;0.40;;;;;;;9.14;100.00;97409.34;5065039;28;20044;-69
2023/11/03 08:03:10;;;;;;;0.65;0.65;;;;;;;9.20;100.00;97408.19;5064919;28;20021;-68
2023/11/03 08:05:37;;;;;;;0.30;0.30;;;;;;;9.12;100.00;97400.81;5065214;28;20017;-70
2023/11/03 08:08:04;;;;;;;0.52;0.52;;;;;;;9.13;100.00;97389.56;5064695;28;20413;-69
2023/11/03 08:10:30;;;;;;;1.75;1.48;;;;;;;9.10;100.00;97381.97;5064869;28;20032;-68
2023/11/03 08:12:57;;;;;;;0.32;0.32;;;;;;;9.11;100.00;97382.78;5067749;28;20031;-68
2023/11/03 08:15:23;;;;;;;0.38;0.38;;;;;;;9.16;100.00;97363.53;5069007;28;20474;-68
2023/11/03 08:17:48;;;;;;;0.30;0.30;;;;;;;9.24;100.00;97372.63;5068815;28;20056;-68
2023/11/03 08:20:15;;;;;;;0.30;0.30;;;;;;;9.17;100.00;97370.38;5068744;28;20028;-69
2023/11/03 08:22:44;;;;;;;0.40;0.40;;;;;;;9.26;100.00;97358.72;5068866;28;20025;-69
2023/11/03 08:25:11;;;;;;;0.30;0.30;;;;;;;9.18;100.00;97363.44;5068812;28;20436;-69
2023/11/03 08:27:37;;;;;;;0.32;0.32;;;;;;;9.27;100.00;97368.13;5068396;28;20024;-68
2023/11/03 08:30:04;;;;;;;0.30;0.30;;;;;;;9.28;100.00;97363.81;5068718;28;20028;-68
2023/11/03 08:32:30;;;;;;;0.55;0.55;;;;;;;9.26;100.00;97360.44;5050489;28;20025;-69
2023/11/03 08:34:56;;;;;;;0.30;0.30;;;;;;;9.38;100.00;97367.56;5050557;28;20032;-70
2023/11/03 08:37:22;;;;;;;0.50;0.50;;;;;;;9.34;100.00;97347.94;5050334;28;20020;-68
2023/11/03 08:39:47;;;;;;;0.80;0.80;;;;;;;9.38;100.00;97364.97;5050438;28;20055;-69
2023/11/03 08:42:14;;;;;;;0.50;0.50;;;;;;;9.45;100.00;97362.06;5068025;28;20029;-68
2023/11/03 08:44:40;;;;;;;0.40;0.40;;;;;;;9.39;100.00;97365.84;5068460;28;20036;-68
2023/11/03 08:47:07;;;;;;;0.57;0.57;;;;;;;9.50;100.00;97371.28;5050112;28;20028;-67
2023/11/03 08:49:34;;;;;;;0.38;0.38;;;;;;;9.46;100.00;97379.25;5068358;28;20021;-68
2023/11/03 08:51:59;;;;;;;0.57;0.57;;;;;;;9.43;100.00;97380.28;5068397;28;20021;-68
2023/11/03 08:54:25;;;;;;;0.65;0.65;;;;;;;9.51;100.00;97385.91;5068263;28;20032;-67
2023/11/03 08:56:50;;;;;;;0.40;0.40;;;;;;;9.58;100.00;97390.75;5068165;28;20055;-67
2023/11/03 08:59:16;;;;;;;0.40;0.40;;;;;;;9.42;100.00;97382.03;5068186;28;20048;-67
2023/11/03 09:01:44;;;;;;;0.45;0.45;;;;;;;9.51;100.00;97395.41;5068112;28;20021;-67
2023/11/03 09:04:10;;;;;;;0.32;0.32;;;;;;;9.56;100.00;97396.00;5049913;28;20021;-67
2023/11/03 09:06:36;;;;;;;22.20;3.42;;;;;;;9.66;100.00;97410.13;5067642;28;20413;-69
2023/11/03 09:09:02;;;;;;;0.40;0.40;;;;;;;9.69;100.00;97401.38;5068009;28;20020;-71
2023/11/03 09:11:27;;;;;;;0.30;0.30;;;;;;;9.52;100.00;97407.47;5067900;28;20017;-72
2023/11/03 09:13:54;;;;;;;0.30;0.30;;;;;;;9.69;100.00;97416.06;5067918;28;20029;-71
2023/11/03 09:16:21;;;;;;;0.30;0.30;;;;;;;9.53;100.00;97401.34;5049874;28;20040;-71
2023/11/03 09:18:48;;;;;;;0.30;0.30;;;;;;;9.77;100.00;97421.69;5049727;28;20025;-72
2023/11/03 09:21:14;;;;;;;0.38;0.38;;;;;;;9.82;98.78;97419.69;5067656;28;20017;-72
2023/11/03 09:23:41;;;;;;;0.30;0.30;;;;;;;9.82;98.52;97429.22;5067612;28;20031;-71
2023/11/03 09:26:06;;;;;;;0.68;0.68;;;;;;;9.80;99.00;97431.88;5049606;28;20021;-73
2023/11/03 09:28:32;;;;;;;3.65;3.35;;;;;;;9.81;98.85;97435.31;5067485;28;20028;-72
2023/11/03 09:30:59;;;;;;;0.40;0.40;;;;;;;9.88;98.23;97432.31;5067390;28;20052;-75
2023/11/03 09:33:25;;;;;;;0.40;0.40;;;;;;;9.79;98.46;97438.81;5067406;28;20029;-75
2023/11/03 09:35:50;;;;;;;0.30;0.30;;;;;;;9.70;99.69;97441.06;5067463;28;20390;-75
2023/11/03 09:38:19;;;;;;;0.43;0.43;;;;;;;9.84;99.62;97433.38;5067139;28;20025;-74
2023/11/03 09:40:45;;;;;;;0.30;0.30;;;;;;;9.87;98.32;97424.63;5049549;28;20025;-71
2023/11/03 09:43:11;;;;;;;0.40;0.40;;;;;;;9.71;100.00;97420.28;5067229;28;20021;-72
2023/11/03 09:45:38;;;;;;;0.30;0.30;;;;;;;9.78;99.47;97424.19;5067180;28;20396;-71
2023/11/03 09:48:05;;;;;;;0.30;0.30;;;;;;;9.86;99.38;97407.38;5049062;28;20024;-72
2023/11/03 09:50:31;;;;;;;0.40;0.40;;;;;;;9.76;99.50;97410.47;5067013;28;20283;-72
2023/11/03 09:52:59;;;;;;;0.95;0.93;;;;;;;9.76;100.00;97418.25;5067016;28;20025;-72
2023/11/03 09:55:27;;;;;;;0.30;0.30;;;;;;;9.85;99.37;97411.75;5067237;28;20025;-72
2023/11/03 09:57:58;;;;;;;0.40;0.40;;;;;;;9.85;99.56;97418.69;5066555;28;20025;-72
2023/11/03 10:00:26;;;;;;;0.40;0.40;;;;;;;9.84;99.77;97430.78;5067036;28;20025;-72
2023/11/03 10:02:52;;;;;;;0.30;0.30;;;;;;;9.81;99.66;97418.00;5066769;28;20028;-74
2023/11/03 10:05:18;;;;;;;0.70;0.70;;;;;;;9.80;99.88;97418.94;5066837;28;20105;-74
2023/11/03 10:08:00;;;;;;;0.40;0.40;;;;;;;9.78;100.00;97410.41;5048761;28;20401;-74
2023/11/03 10:10:25;;;;;;;0.40;0.40;;;;;;;9.78;99.88;97402.63;5066837;28;20044;-74
2023/11/03 10:12:50;;;;;;;0.30;0.30;;;;;;;9.79;100.00;97389.59;5066412;28;20068;-73
2023/11/03 10:15:16;;;;;;;0.30;0.30;;;;;;;10.00;99.05;97391.13;5066714;28;20037;-73
2023/11/03 10:17:45;;;;;;;0.32;0.32;;;;;;;9.97;98.48;97393.88;5048617;28;20063;-73
2023/11/03 10:20:12;;;;;;;0.40;0.40;;;;;;;9.73;100.00;97387.31;5066677;28;20055;-73
2023/11/03 10:22:39;;;;;;;0.30;0.30;;;;;;;9.87;100.00;97385.75;5066581;28;20104;-74
2023/11/03 10:25:08;;;;;;;0.40;0.40;;;;;;;9.96;98.06;97382.66;5048896;28;20028;-74
2023/11/03 10:27:36;;;;;;;0.30;0.30;;;;;;;9.83;99.28;97389.41;5048359;28;20025;-72
2023/11/03 10:30:05;;;;;;;0.30;0.30;;;;;;;9.77;100.00;97381.09;5047520;28;20132;-75
2023/11/03 10:32:35;;;;;;;0.40;0.40;;;;;;;9.88;99.74;97374.47;5064472;28;20029;-73
2023/11/03 10:35:05;;;;;;;0.65;0.65;;;;;;;10.01;98.40;97374.63;5065465;28;20067;-73
2023/11/03 10:37:35;;;;;;;0.40;0.40;;;;;;;9.86;100.00;97360.75;5066247;28;20071;-73
2023/11/03 10:40:00;;;;;;;0.40;0.40;;;;;;;9.87;100.00;97370.22;5065089;28;20032;-73
2023/11/03 10:42:28;;;;;;;0.30;0.30;;;;;;;9.89;100.00;97376.13;5066140;28;20103;-74
2023/11/03 10:44:57;;;;;;;0.40;0.40;;;;;;;9.94;99.86;97376.72;5066155;28;20053;-74
2023/11/03 10:47:37;;;;;;;0.30;0.30;;;;;;;10.00;99.31;97370.38;5066086;28;20020;-75
2023/11/03 10:50:05;;;;;;;0.30;0.30;;;;;;;10.10;97.94;97363.75;5066171;28;20028;-74
2023/11/03 10:52:49;;;;;;;0.38;0.38;;;;;;;10.08;98.02;97359.59;5047949;28;20093;-75
2023/11/03 10:55:20;;;;;;;0.30;0.30;;;;;;;10.00;99.10;97360.03;5066292;28;20025;-74
2023/11/03 10:57:45;;;;;;;0.50;0.50;;;;;;;10.10;98.46;97366.34;5065903;28;20025;-75
2023/11/03 11:00:20;;;;;;;0.40;0.40;;;;;;;10.07;99.33;97376.88;5065908;28;20020;-74
2023/11/03 11:02:49;;;;;;;0.40;0.40;;;;;;;10.07;99.91;97366.53;5047861;28;20111;-73
2023/11/03 11:05:35;;;;;;;0.30;0.30;;;;;;;10.05;99.85;97365.75;5065814;28;20100;-74
2023/11/03 11:08:06;;;;;;;0.30;0.30;;;;;;;10.09;99.33;97363.84;5047548;28;20041;-74
2023/11/03 11:10:41;;;;;;;0.60;0.60;;;;;;;10.11;99.07;97359.41;5065900;28;20041;-74
2023/11/03 11:13:18;;;;;;;0.40;0.40;;;;;;;10.12;97.96;97372.28;5047711;28;20078;-74
2023/11/03 11:15:55;;;;;;;1.05;1.05;;;;;;;10.15;97.62;97361.75;5047857;28;20056;-73
2023/11/03 11:18:22;;;;;;;3.80;2.25;;;;;;;10.10;97.46;97360.31;5047408;28;20025;-74
2023/11/03 11:20:53;;;;;;;0.50;0.50;;;;;;;10.16;96.88;97367.75;5065429;28;20098;-74
2023/11/03 11:23:22;;;;;;;0.40;0.40;;;;;;;10.41;94.08;97374.97;5065585;28;20027;-74
2023/11/03 11:25:50;;;;;;;0.30;0.30;;;;;;;10.12;95.75;97372.28;5047701;28;20116;-74
2023/11/03 11:28:35;;;;;;;0.60;0.60;;;;;;;10.10;96.89;97371.53;5065332;28;20017;-74
2023/11/03 11:31:27;;;;;;;0.40;0.40;;;;;;;10.12;96.62;97369.69;5065536;28;20017;-74
2023/11/03 11:34:12;;;;;;;0.93;0.93;;;;;;;10.23;95.68;97368.25;5047356;28;20047;-74